sensor_id;sensor_type;location;lat;lon;timestamp;temperature;humidity
61896;DHT22;47835;52.778;5.956;2022-11-20T00:01:40;17.60;69.00
61896;DHT22;47835;52.778;5.956;2022-11-20T00:04:06;17.60;69.20
61896;DHT22;47835;52.778;5.956;2022-11-20T00:06:32;17.50;68.90
61896;DHT22;47835;52.778;5.956;2022-11-20T00:08:58;17.50;68.90
61896;DHT22;47835;52.778;5.956;2022-11-20T00:11:26;17.50;69.10
61896;DHT22;47835;52.778;5.956;2022-11-20T00:13:54;17.50;68.90
61896;DHT22;47835;52.778;5.956;2022-11-20T00:16:23;17.50;68.10
61896;DHT22;47835;52.778;5.956;2022-11-20T00:18:49;17.50;68.00
61896;DHT22;47835;52.778;5.956;2022-11-20T00:21:21;17.50;67.50
61896;DHT22;47835;52.778;5.956;2022-11-20T00:23:47;17.50;67.40
61896;DHT22;47835;52.778;5.956;2022-11-20T00:26:14;17.50;67.40
61896;DHT22;47835;52.778;5.956;2022-11-20T00:28:41;17.50;67.10
61896;DHT22;47835;52.778;5.956;2022-11-20T00:31:10;17.50;67.10
61896;DHT22;47835;52.778;5.956;2022-11-20T00:33:36;17.50;67.70
61896;DHT22;47835;52.778;5.956;2022-11-20T00:36:06;17.60;67.30
61896;DHT22;47835;52.778;5.956;2022-11-20T00:38:33;17.50;67.10
61896;DHT22;47835;52.778;5.956;2022-11-20T00:41:07;17.50;66.90
61896;DHT22;47835;52.778;5.956;2022-11-20T00:43:33;17.50;67.20
61896;DHT22;47835;52.778;5.956;2022-11-20T00:45:59;17.50;67.10
61896;DHT22;47835;52.778;5.956;2022-11-20T00:48:26;17.50;67.30
61896;DHT22;47835;52.778;5.956;2022-11-20T00:50:52;17.50;66.90
61896;DHT22;47835;52.778;5.956;2022-11-20T00:53:18;17.50;67.00
61896;DHT22;47835;52.778;5.956;2022-11-20T00:55:56;17.40;67.10
61896;DHT22;47835;52.778;5.956;2022-11-20T00:58:22;17.40;67.30
61896;DHT22;47835;52.778;5.956;2022-11-20T01:00:48;17.40;67.30
61896;DHT22;47835;52.778;5.956;2022-11-20T01:03:18;17.40;67.10
61896;DHT22;47835;52.778;5.956;2022-11-20T01:05:43;17.40;67.10
61896;DHT22;47835;52.778;5.956;2022-11-20T01:08:09;17.40;67.30
61896;DHT22;47835;52.778;5.956;2022-11-20T01:10:35;17.40;67.10
61896;DHT22;47835;52.778;5.956;2022-11-20T01:13:00;17.40;66.80
61896;DHT22;47835;52.778;5.956;2022-11-20T01:15:44;17.40;66.90
61896;DHT22;47835;52.778;5.956;2022-11-20T01:18:10;17.40;66.90
61896;DHT22;47835;52.778;5.956;2022-11-20T01:20:36;17.40;66.80
61896;DHT22;47835;52.778;5.956;2022-11-20T01:23:03;17.30;67.20
61896;DHT22;47835;52.778;5.956;2022-11-20T01:25:29;17.40;67.40
61896;DHT22;47835;52.778;5.956;2022-11-20T01:27:54;17.40;67.20
61896;DHT22;47835;52.778;5.956;2022-11-20T01:30:20;17.40;67.60
61896;DHT22;47835;52.778;5.956;2022-11-20T01:32:45;17.40;67.40
61896;DHT22;47835;52.778;5.956;2022-11-20T01:35:11;17.40;67.40
61896;DHT22;47835;52.778;5.956;2022-11-20T01:37:36;17.40;67.20
61896;DHT22;47835;52.778;5.956;2022-11-20T01:40:02;17.40;67.00
61896;DHT22;47835;52.778;5.956;2022-11-20T01:42:28;17.40;67.20
61896;DHT22;47835;52.778;5.956;2022-11-20T01:48:12;17.30;67.40
61896;DHT22;47835;52.778;5.956;2022-11-20T01:50:39;17.40;67.60
61896;DHT22;47835;52.778;5.956;2022-11-20T01:53:09;17.30;67.20
61896;DHT22;47835;52.778;5.956;2022-11-20T01:55:39;17.40;67.60
61896;DHT22;47835;52.778;5.956;2022-11-20T01:58:06;17.40;67.90
61896;DHT22;47835;52.778;5.956;2022-11-20T02:00:32;17.40;67.40
61896;DHT22;47835;52.778;5.956;2022-11-20T02:03:05;17.40;67.80
61896;DHT22;47835;52.778;5.956;2022-11-20T02:08:28;17.40;67.40
61896;DHT22;47835;52.778;5.956;2022-11-20T02:10:54;17.40;67.20
61896;DHT22;47835;52.778;5.956;2022-11-20T02:13:20;17.40;67.20
61896;DHT22;47835;52.778;5.956;2022-11-20T02:18:40;17.40;67.80
61896;DHT22;47835;52.778;5.956;2022-11-20T02:24:28;17.40;67.40
61896;DHT22;47835;52.778;5.956;2022-11-20T02:27:04;17.40;67.40
61896;DHT22;47835;52.778;5.956;2022-11-20T02:29:53;17.40;67.50
61896;DHT22;47835;52.778;5.956;2022-11-20T02:32:29;17.40;67.50
61896;DHT22;47835;52.778;5.956;2022-11-20T02:34:55;17.40;67.50
61896;DHT22;47835;52.778;5.956;2022-11-20T02:37:22;17.40;67.10
61896;DHT22;47835;52.778;5.956;2022-11-20T02:39:49;17.40;66.80
61896;DHT22;47835;52.778;5.956;2022-11-20T02:42:16;17.40;66.90
61896;DHT22;47835;52.778;5.956;2022-11-20T02:44:42;17.50;67.00
61896;DHT22;47835;52.778;5.956;2022-11-20T02:47:07;17.40;67.30
61896;DHT22;47835;52.778;5.956;2022-11-20T02:49:33;17.40;66.80
61896;DHT22;47835;52.778;5.956;2022-11-20T02:51:59;17.50;67.20
61896;DHT22;47835;52.778;5.956;2022-11-20T02:54:25;17.50;67.20
61896;DHT22;47835;52.778;5.956;2022-11-20T02:56:51;17.40;67.50
61896;DHT22;47835;52.778;5.956;2022-11-20T02:59:17;17.40;67.40
61896;DHT22;47835;52.778;5.956;2022-11-20T03:01:42;17.40;67.50
61896;DHT22;47835;52.778;5.956;2022-11-20T03:04:08;17.40;67.40
61896;DHT22;47835;52.778;5.956;2022-11-20T03:06:33;17.40;67.00
61896;DHT22;47835;52.778;5.956;2022-11-20T03:08:59;17.40;68.10
61896;DHT22;47835;52.778;5.956;2022-11-20T03:11:24;17.40;67.40
61896;DHT22;47835;52.778;5.956;2022-11-20T03:13:50;17.40;67.10
61896;DHT22;47835;52.778;5.956;2022-11-20T03:16:19;17.40;67.40
61896;DHT22;47835;52.778;5.956;2022-11-20T03:18:45;17.40;67.10
61896;DHT22;47835;52.778;5.956;2022-11-20T03:21:12;17.40;67.50
61896;DHT22;47835;52.778;5.956;2022-11-20T03:23:39;17.40;67.50
61896;DHT22;47835;52.778;5.956;2022-11-20T03:26:25;17.40;67.30
61896;DHT22;47835;52.778;5.956;2022-11-20T03:28:54;17.40;67.40
61896;DHT22;47835;52.778;5.956;2022-11-20T03:31:25;17.40;67.70
61896;DHT22;47835;52.778;5.956;2022-11-20T03:33:51;17.40;67.90
61896;DHT22;47835;52.778;5.956;2022-11-20T03:36:18;17.40;67.30
61896;DHT22;47835;52.778;5.956;2022-11-20T03:38:44;17.40;68.30
61896;DHT22;47835;52.778;5.956;2022-11-20T03:41:12;17.40;67.40
61896;DHT22;47835;52.778;5.956;2022-11-20T03:43:38;17.40;67.40
61896;DHT22;47835;52.778;5.956;2022-11-20T03:46:05;17.50;67.60
61896;DHT22;47835;52.778;5.956;2022-11-20T03:48:31;17.40;67.80
61896;DHT22;47835;52.778;5.956;2022-11-20T03:51:14;17.40;67.50
61896;DHT22;47835;52.778;5.956;2022-11-20T03:53:41;17.40;67.60
61896;DHT22;47835;52.778;5.956;2022-11-20T03:56:08;17.40;67.50
61896;DHT22;47835;52.778;5.956;2022-11-20T03:58:37;17.50;68.50
61896;DHT22;47835;52.778;5.956;2022-11-20T04:01:09;17.40;67.40
61896;DHT22;47835;52.778;5.956;2022-11-20T04:03:36;17.40;67.50
61896;DHT22;47835;52.778;5.956;2022-11-20T04:06:14;17.40;67.80
61896;DHT22;47835;52.778;5.956;2022-11-20T04:08:40;17.40;67.40
61896;DHT22;47835;52.778;5.956;2022-11-20T04:13:38;17.40;67.30
61896;DHT22;47835;52.778;5.956;2022-11-20T04:16:05;17.40;67.40
61896;DHT22;47835;52.778;5.956;2022-11-20T04:18:31;17.40;67.40
61896;DHT22;47835;52.778;5.956;2022-11-20T04:20:57;17.40;67.30
61896;DHT22;47835;52.778;5.956;2022-11-20T04:23:23;17.50;67.70
61896;DHT22;47835;52.778;5.956;2022-11-20T04:25:49;17.40;67.40
61896;DHT22;47835;52.778;5.956;2022-11-20T04:28:14;17.40;67.40
61896;DHT22;47835;52.778;5.956;2022-11-20T04:30:40;17.40;67.40
61896;DHT22;47835;52.778;5.956;2022-11-20T04:33:06;17.40;67.10
61896;DHT22;47835;52.778;5.956;2022-11-20T04:35:34;17.40;66.90
61896;DHT22;47835;52.778;5.956;2022-11-20T04:38:00;17.40;67.10
61896;DHT22;47835;52.778;5.956;2022-11-20T04:40:25;17.40;67.20
61896;DHT22;47835;52.778;5.956;2022-11-20T04:42:51;17.40;66.80
61896;DHT22;47835;52.778;5.956;2022-11-20T04:45:16;17.40;67.00
61896;DHT22;47835;52.778;5.956;2022-11-20T04:47:42;17.40;67.30
61896;DHT22;47835;52.778;5.956;2022-11-20T04:50:08;17.40;67.40
61896;DHT22;47835;52.778;5.956;2022-11-20T04:52:34;17.50;67.60
61896;DHT22;47835;52.778;5.956;2022-11-20T04:54:59;17.50;67.40
61896;DHT22;47835;52.778;5.956;2022-11-20T04:57:25;17.50;67.00
61896;DHT22;47835;52.778;5.956;2022-11-20T04:59:50;17.50;66.80
61896;DHT22;47835;52.778;5.956;2022-11-20T05:02:16;17.50;67.00
61896;DHT22;47835;52.778;5.956;2022-11-20T05:04:41;17.40;66.80
61896;DHT22;47835;52.778;5.956;2022-11-20T05:07:07;17.50;66.90
61896;DHT22;47835;52.778;5.956;2022-11-20T05:09:32;17.50;66.90
61896;DHT22;47835;52.778;5.956;2022-11-20T05:11:58;17.50;67.10
61896;DHT22;47835;52.778;5.956;2022-11-20T05:14:23;17.50;66.90
61896;DHT22;47835;52.778;5.956;2022-11-20T05:16:49;17.50;66.70
61896;DHT22;47835;52.778;5.956;2022-11-20T05:19:14;17.40;66.90
61896;DHT22;47835;52.778;5.956;2022-11-20T05:21:40;17.50;66.90
61896;DHT22;47835;52.778;5.956;2022-11-20T05:24:05;17.40;67.30
61896;DHT22;47835;52.778;5.956;2022-11-20T05:26:32;17.50;67.20
61896;DHT22;47835;52.778;5.956;2022-11-20T05:28:57;17.40;66.90
61896;DHT22;47835;52.778;5.956;2022-11-20T05:33:49;17.40;66.80
61896;DHT22;47835;52.778;5.956;2022-11-20T05:36:15;17.50;66.80
61896;DHT22;47835;52.778;5.956;2022-11-20T05:38:42;17.50;67.10
61896;DHT22;47835;52.778;5.956;2022-11-20T05:41:10;17.40;66.80
61896;DHT22;47835;52.778;5.956;2022-11-20T05:43:37;17.40;67.00
61896;DHT22;47835;52.778;5.956;2022-11-20T05:46:04;17.40;66.80
61896;DHT22;47835;52.778;5.956;2022-11-20T05:48:30;17.40;66.90
61896;DHT22;47835;52.778;5.956;2022-11-20T05:51:01;17.40;66.90
61896;DHT22;47835;52.778;5.956;2022-11-20T05:53:27;17.40;66.70
61896;DHT22;47835;52.778;5.956;2022-11-20T05:56:00;17.40;66.60
61896;DHT22;47835;52.778;5.956;2022-11-20T05:58:26;17.40;67.70
61896;DHT22;47835;52.778;5.956;2022-11-20T06:00:52;17.40;66.70
61896;DHT22;47835;52.778;5.956;2022-11-20T06:03:17;17.40;66.90
61896;DHT22;47835;52.778;5.956;2022-11-20T06:05:43;17.40;66.80
61896;DHT22;47835;52.778;5.956;2022-11-20T06:08:08;17.40;66.80
61896;DHT22;47835;52.778;5.956;2022-11-20T06:10:34;17.40;66.80
61896;DHT22;47835;52.778;5.956;2022-11-20T06:13:00;17.40;66.70
61896;DHT22;47835;52.778;5.956;2022-11-20T06:15:25;17.40;66.80
61896;DHT22;47835;52.778;5.956;2022-11-20T06:17:55;17.40;66.70
61896;DHT22;47835;52.778;5.956;2022-11-20T06:20:21;17.40;66.80
61896;DHT22;47835;52.778;5.956;2022-11-20T06:22:47;17.40;66.80
61896;DHT22;47835;52.778;5.956;2022-11-20T06:25:13;17.40;66.90
61896;DHT22;47835;52.778;5.956;2022-11-20T06:27:39;17.40;66.90
61896;DHT22;47835;52.778;5.956;2022-11-20T06:30:05;17.40;67.00
61896;DHT22;47835;52.778;5.956;2022-11-20T06:32:30;17.40;66.80
61896;DHT22;47835;52.778;5.956;2022-11-20T06:34:56;17.40;66.90
61896;DHT22;47835;52.778;5.956;2022-11-20T06:37:22;17.40;66.70
61896;DHT22;47835;52.778;5.956;2022-11-20T06:39:47;17.40;67.00
61896;DHT22;47835;52.778;5.956;2022-11-20T06:42:13;17.40;66.70
61896;DHT22;47835;52.778;5.956;2022-11-20T06:44:38;17.40;67.20
61896;DHT22;47835;52.778;5.956;2022-11-20T06:47:04;17.40;67.10
61896;DHT22;47835;52.778;5.956;2022-11-20T06:49:29;17.40;67.20
61896;DHT22;47835;52.778;5.956;2022-11-20T06:51:55;17.40;67.00
61896;DHT22;47835;52.778;5.956;2022-11-20T06:54:23;17.40;67.40
61896;DHT22;47835;52.778;5.956;2022-11-20T06:56:49;17.40;67.00
61896;DHT22;47835;52.778;5.956;2022-11-20T06:59:14;17.40;66.80
61896;DHT22;47835;52.778;5.956;2022-11-20T07:01:40;17.40;67.10
61896;DHT22;47835;52.778;5.956;2022-11-20T07:04:05;17.40;67.30
61896;DHT22;47835;52.778;5.956;2022-11-20T07:06:31;17.40;67.10
61896;DHT22;47835;52.778;5.956;2022-11-20T07:08:57;17.40;67.40
61896;DHT22;47835;52.778;5.956;2022-11-20T07:11:22;17.40;66.90
61896;DHT22;47835;52.778;5.956;2022-11-20T07:13:48;17.40;66.90
61896;DHT22;47835;52.778;5.956;2022-11-20T07:16:14;17.40;66.70
61896;DHT22;47835;52.778;5.956;2022-11-20T07:18:39;17.40;66.90
61896;DHT22;47835;52.778;5.956;2022-11-20T07:21:09;17.40;66.50
61896;DHT22;47835;52.778;5.956;2022-11-20T07:23:35;17.40;66.70
61896;DHT22;47835;52.778;5.956;2022-11-20T07:26:08;17.50;66.80
61896;DHT22;47835;52.778;5.956;2022-11-20T07:28:35;17.40;66.80
61896;DHT22;47835;52.778;5.956;2022-11-20T07:31:00;17.40;66.70
61896;DHT22;47835;52.778;5.956;2022-11-20T07:33:26;17.40;66.60
61896;DHT22;47835;52.778;5.956;2022-11-20T07:35:52;17.50;66.60
61896;DHT22;47835;52.778;5.956;2022-11-20T07:38:17;17.40;66.40
61896;DHT22;47835;52.778;5.956;2022-11-20T07:40:43;17.40;66.40
61896;DHT22;47835;52.778;5.956;2022-11-20T07:43:09;17.40;66.80
61896;DHT22;47835;52.778;5.956;2022-11-20T07:45:34;17.40;66.60
61896;DHT22;47835;52.778;5.956;2022-11-20T07:48:00;17.50;66.80
61896;DHT22;47835;52.778;5.956;2022-11-20T07:50:25;17.50;66.80
61896;DHT22;47835;52.778;5.956;2022-11-20T07:52:51;17.40;66.90
61896;DHT22;47835;52.778;5.956;2022-11-20T07:55:17;17.50;66.90
61896;DHT22;47835;52.778;5.956;2022-11-20T07:57:43;17.40;66.80
61896;DHT22;47835;52.778;5.956;2022-11-20T08:00:10;17.50;67.00
61896;DHT22;47835;52.778;5.956;2022-11-20T08:02:40;17.40;66.90
61896;DHT22;47835;52.778;5.956;2022-11-20T08:05:06;17.40;66.50
61896;DHT22;47835;52.778;5.956;2022-11-20T08:07:39;17.50;66.90
61896;DHT22;47835;52.778;5.956;2022-11-20T08:10:05;17.50;66.30
61896;DHT22;47835;52.778;5.956;2022-11-20T08:12:31;17.50;66.50
61896;DHT22;47835;52.778;5.956;2022-11-20T08:15:15;17.50;66.70
61896;DHT22;47835;52.778;5.956;2022-11-20T08:17:41;17.40;66.00
61896;DHT22;47835;52.778;5.956;2022-11-20T08:20:07;17.40;66.10
61896;DHT22;47835;52.778;5.956;2022-11-20T08:22:32;17.50;66.00
61896;DHT22;47835;52.778;5.956;2022-11-20T08:24:58;17.50;65.90
61896;DHT22;47835;52.778;5.956;2022-11-20T08:27:23;17.50;65.50
61896;DHT22;47835;52.778;5.956;2022-11-20T08:29:49;17.50;65.70
61896;DHT22;47835;52.778;5.956;2022-11-20T08:32:14;17.20;58.40
61896;DHT22;47835;52.778;5.956;2022-11-20T08:34:40;17.00;62.80
61896;DHT22;47835;52.778;5.956;2022-11-20T08:37:06;16.90;62.60
61896;DHT22;47835;52.778;5.956;2022-11-20T08:39:31;16.70;63.90
61896;DHT22;47835;52.778;5.956;2022-11-20T08:41:57;16.60;64.10
61896;DHT22;47835;52.778;5.956;2022-11-20T08:44:22;16.50;65.10
61896;DHT22;47835;52.778;5.956;2022-11-20T08:46:48;16.50;66.60
61896;DHT22;47835;52.778;5.956;2022-11-20T08:49:14;16.50;68.10
61896;DHT22;47835;52.778;5.956;2022-11-20T08:51:40;16.40;66.60
61896;DHT22;47835;52.778;5.956;2022-11-20T08:54:06;16.40;67.20
61896;DHT22;47835;52.778;5.956;2022-11-20T08:56:32;16.40;68.20
61896;DHT22;47835;52.778;5.956;2022-11-20T08:58:58;16.40;68.00
61896;DHT22;47835;52.778;5.956;2022-11-20T09:01:27;16.40;67.70
61896;DHT22;47835;52.778;5.956;2022-11-20T09:03:55;16.40;67.30
61896;DHT22;47835;52.778;5.956;2022-11-20T09:06:22;16.40;66.70
61896;DHT22;47835;52.778;5.956;2022-11-20T09:08:52;16.40;65.70
61896;DHT22;47835;52.778;5.956;2022-11-20T09:11:17;16.40;65.00
61896;DHT22;47835;52.778;5.956;2022-11-20T09:13:43;16.40;69.80
61896;DHT22;47835;52.778;5.956;2022-11-20T09:16:08;16.40;66.40
61896;DHT22;47835;52.778;5.956;2022-11-20T09:18:35;16.50;67.00
61896;DHT22;47835;52.778;5.956;2022-11-20T09:21:11;16.50;68.90
61896;DHT22;47835;52.778;5.956;2022-11-20T09:23:38;16.50;68.70
61896;DHT22;47835;52.778;5.956;2022-11-20T09:26:11;16.60;69.30
61896;DHT22;47835;52.778;5.956;2022-11-20T09:28:38;16.60;73.10
61896;DHT22;47835;52.778;5.956;2022-11-20T09:31:19;16.70;72.50
61896;DHT22;47835;52.778;5.956;2022-11-20T09:33:47;16.70;68.90
61896;DHT22;47835;52.778;5.956;2022-11-20T09:36:12;16.70;69.00
61896;DHT22;47835;52.778;5.956;2022-11-20T09:38:38;16.70;69.70
61896;DHT22;47835;52.778;5.956;2022-11-20T09:41:05;16.70;69.40
61896;DHT22;47835;52.778;5.956;2022-11-20T09:46:21;16.70;69.70
61896;DHT22;47835;52.778;5.956;2022-11-20T09:51:47;16.70;70.10
61896;DHT22;47835;52.778;5.956;2022-11-20T09:54:22;16.70;69.50
61896;DHT22;47835;52.778;5.956;2022-11-20T09:56:55;16.80;70.20
61896;DHT22;47835;52.778;5.956;2022-11-20T09:59:45;16.80;69.90
61896;DHT22;47835;52.778;5.956;2022-11-20T10:02:16;16.80;70.60
61896;DHT22;47835;52.778;5.956;2022-11-20T10:04:49;16.80;70.70
61896;DHT22;47835;52.778;5.956;2022-11-20T10:07:26;16.90;70.30
61896;DHT22;47835;52.778;5.956;2022-11-20T10:09:55;16.90;70.30
61896;DHT22;47835;52.778;5.956;2022-11-20T10:15:38;16.90;70.30
61896;DHT22;47835;52.778;5.956;2022-11-20T10:23:57;16.90;70.90
61896;DHT22;47835;52.778;5.956;2022-11-20T10:29:11;16.90;71.60
61896;DHT22;47835;52.778;5.956;2022-11-20T10:32:07;17.00;71.40
61896;DHT22;47835;52.778;5.956;2022-11-20T10:34:59;17.00;72.20
61896;DHT22;47835;52.778;5.956;2022-11-20T10:37:28;17.00;73.20
61896;DHT22;47835;52.778;5.956;2022-11-20T10:40:01;17.00;72.70
61896;DHT22;47835;52.778;5.956;2022-11-20T10:42:37;17.00;73.40
61896;DHT22;47835;52.778;5.956;2022-11-20T10:47:44;17.10;73.20
61896;DHT22;47835;52.778;5.956;2022-11-20T10:50:15;17.10;73.60
61896;DHT22;47835;52.778;5.956;2022-11-20T10:55:38;17.10;74.80
61896;DHT22;47835;52.778;5.956;2022-11-20T10:58:30;17.10;74.30
61896;DHT22;47835;52.778;5.956;2022-11-20T11:01:11;17.10;74.40
61896;DHT22;47835;52.778;5.956;2022-11-20T11:03:39;17.10;75.00
61896;DHT22;47835;52.778;5.956;2022-11-20T11:06:07;17.10;74.20
61896;DHT22;47835;52.778;5.956;2022-11-20T11:08:38;17.20;74.50
61896;DHT22;47835;52.778;5.956;2022-11-20T11:11:21;17.20;76.80
61896;DHT22;47835;52.778;5.956;2022-11-20T11:13:48;17.30;76.10
61896;DHT22;47835;52.778;5.956;2022-11-20T11:16:25;17.30;75.70
61896;DHT22;47835;52.778;5.956;2022-11-20T11:18:51;17.20;76.50
61896;DHT22;47835;52.778;5.956;2022-11-20T11:21:28;17.30;77.30
61896;DHT22;47835;52.778;5.956;2022-11-20T11:24:02;17.30;76.10
61896;DHT22;47835;52.778;5.956;2022-11-20T11:26:28;17.20;76.50
61896;DHT22;47835;52.778;5.956;2022-11-20T11:28:59;17.30;77.20
61896;DHT22;47835;52.778;5.956;2022-11-20T11:31:31;17.30;78.00
61896;DHT22;47835;52.778;5.956;2022-11-20T11:34:14;17.30;77.50
61896;DHT22;47835;52.778;5.956;2022-11-20T11:36:41;17.30;77.60
61896;DHT22;47835;52.778;5.956;2022-11-20T11:39:27;17.30;77.80
61896;DHT22;47835;52.778;5.956;2022-11-20T11:41:53;17.30;78.10
61896;DHT22;47835;52.778;5.956;2022-11-20T11:44:21;17.30;78.30
61896;DHT22;47835;52.778;5.956;2022-11-20T11:49:47;17.30;78.30
61896;DHT22;47835;52.778;5.956;2022-11-20T11:52:18;17.30;78.80
61896;DHT22;47835;52.778;5.956;2022-11-20T11:54:49;17.30;78.60
61896;DHT22;47835;52.778;5.956;2022-11-20T12:00:08;17.30;78.90
61896;DHT22;47835;52.778;5.956;2022-11-20T12:02:46;17.30;79.20
61896;DHT22;47835;52.778;5.956;2022-11-20T12:08:06;17.30;80.40
61896;DHT22;47835;52.778;5.956;2022-11-20T12:15:51;17.40;78.60
61896;DHT22;47835;52.778;5.956;2022-11-20T12:18:20;17.30;76.70
61896;DHT22;47835;52.778;5.956;2022-11-20T12:24:27;17.30;77.40
61896;DHT22;47835;52.778;5.956;2022-11-20T12:40:28;17.30;76.30
61896;DHT22;47835;52.778;5.956;2022-11-20T12:43:20;17.30;75.80
61896;DHT22;47835;52.778;5.956;2022-11-20T12:46:39;17.30;74.70
61896;DHT22;47835;52.778;5.956;2022-11-20T12:49:13;17.20;75.40
61896;DHT22;47835;52.778;5.956;2022-11-20T12:57:47;17.30;76.30
61896;DHT22;47835;52.778;5.956;2022-11-20T13:00:21;17.30;75.40
61896;DHT22;47835;52.778;5.956;2022-11-20T13:03:51;17.20;75.50
61896;DHT22;47835;52.778;5.956;2022-11-20T13:08:38;17.20;75.90
61896;DHT22;47835;52.778;5.956;2022-11-20T13:11:09;17.20;76.00
61896;DHT22;47835;52.778;5.956;2022-11-20T13:14:14;17.10;76.60
61896;DHT22;47835;52.778;5.956;2022-11-20T13:17:08;17.10;76.20
61896;DHT22;47835;52.778;5.956;2022-11-20T13:19:37;17.10;76.60
61896;DHT22;47835;52.778;5.956;2022-11-20T13:22:03;17.10;77.60
61896;DHT22;47835;52.778;5.956;2022-11-20T13:24:30;17.10;76.80
61896;DHT22;47835;52.778;5.956;2022-11-20T13:27:01;17.10;76.90
61896;DHT22;47835;52.778;5.956;2022-11-20T13:29:26;17.10;76.70
61896;DHT22;47835;52.778;5.956;2022-11-20T13:32:02;17.10;76.60
61896;DHT22;47835;52.778;5.956;2022-11-20T13:34:29;17.00;76.40
61896;DHT22;47835;52.778;5.956;2022-11-20T13:36:57;17.00;78.60
61896;DHT22;47835;52.778;5.956;2022-11-20T13:39:28;17.00;78.20
61896;DHT22;47835;52.778;5.956;2022-11-20T13:41:56;16.90;78.10
61896;DHT22;47835;52.778;5.956;2022-11-20T13:44:29;17.00;78.40
61896;DHT22;47835;52.778;5.956;2022-11-20T13:46:54;17.00;77.40
61896;DHT22;47835;52.778;5.956;2022-11-20T13:49:33;16.90;77.20
61896;DHT22;47835;52.778;5.956;2022-11-20T13:55:19;17.00;78.10
61896;DHT22;47835;52.778;5.956;2022-11-20T14:00:28;16.90;77.70
61896;DHT22;47835;52.778;5.956;2022-11-20T14:05:35;16.90;77.00
61896;DHT22;47835;52.778;5.956;2022-11-20T14:08:03;17.00;77.10
61896;DHT22;47835;52.778;5.956;2022-11-20T14:10:30;17.00;75.90
61896;DHT22;47835;52.778;5.956;2022-11-20T14:12:55;17.00;75.80
61896;DHT22;47835;52.778;5.956;2022-11-20T14:15:32;17.00;74.80
61896;DHT22;47835;52.778;5.956;2022-11-20T14:18:00;16.90;74.90
61896;DHT22;47835;52.778;5.956;2022-11-20T14:20:38;16.90;75.80
61896;DHT22;47835;52.778;5.956;2022-11-20T14:23:04;17.00;77.20
61896;DHT22;47835;52.778;5.956;2022-11-20T14:25:30;17.00;77.50
61896;DHT22;47835;52.778;5.956;2022-11-20T14:28:01;17.00;76.70
61896;DHT22;47835;52.778;5.956;2022-11-20T14:30:44;17.10;75.50
61896;DHT22;47835;52.778;5.956;2022-11-20T14:33:10;17.00;74.70
61896;DHT22;47835;52.778;5.956;2022-11-20T14:35:47;17.00;74.70
61896;DHT22;47835;52.778;5.956;2022-11-20T14:38:16;17.00;74.60
61896;DHT22;47835;52.778;5.956;2022-11-20T14:40:42;16.90;74.50
61896;DHT22;47835;52.778;5.956;2022-11-20T14:43:28;17.00;74.90
61896;DHT22;47835;52.778;5.956;2022-11-20T14:45:58;16.90;74.50
61896;DHT22;47835;52.778;5.956;2022-11-20T14:48:32;16.90;74.80
61896;DHT22;47835;52.778;5.956;2022-11-20T14:50:59;16.90;74.80
61896;DHT22;47835;52.778;5.956;2022-11-20T14:53:25;16.90;74.70
61896;DHT22;47835;52.778;5.956;2022-11-20T14:56:02;16.90;74.80
61896;DHT22;47835;52.778;5.956;2022-11-20T14:58:30;16.90;74.60
61896;DHT22;47835;52.778;5.956;2022-11-20T15:01:04;16.90;74.80
61896;DHT22;47835;52.778;5.956;2022-11-20T15:03:40;16.90;74.50
61896;DHT22;47835;52.778;5.956;2022-11-20T15:06:12;16.90;74.90
61896;DHT22;47835;52.778;5.956;2022-11-20T15:08:38;17.00;74.90
61896;DHT22;47835;52.778;5.956;2022-11-20T15:11:25;16.90;74.80
61896;DHT22;47835;52.778;5.956;2022-11-20T15:13:52;16.90;74.60
61896;DHT22;47835;52.778;5.956;2022-11-20T15:16:20;16.90;75.80
61896;DHT22;47835;52.778;5.956;2022-11-20T15:18:46;17.00;75.30
61896;DHT22;47835;52.778;5.956;2022-11-20T15:21:18;17.00;75.80
61896;DHT22;47835;52.778;5.956;2022-11-20T15:23:43;16.90;75.60
61896;DHT22;47835;52.778;5.956;2022-11-20T15:26:11;17.00;76.20
61896;DHT22;47835;52.778;5.956;2022-11-20T15:28:39;17.00;75.60
61896;DHT22;47835;52.778;5.956;2022-11-20T15:31:06;16.90;75.50
61896;DHT22;47835;52.778;5.956;2022-11-20T15:33:33;16.90;75.60
61896;DHT22;47835;52.778;5.956;2022-11-20T15:35:59;16.90;75.40
61896;DHT22;47835;52.778;5.956;2022-11-20T15:38:25;16.90;75.30
61896;DHT22;47835;52.778;5.956;2022-11-20T15:40:51;16.90;75.50
61896;DHT22;47835;52.778;5.956;2022-11-20T15:43:17;17.00;75.70
61896;DHT22;47835;52.778;5.956;2022-11-20T15:45:55;17.00;75.50
61896;DHT22;47835;52.778;5.956;2022-11-20T15:48:29;17.00;76.00
61896;DHT22;47835;52.778;5.956;2022-11-20T15:53:40;17.00;75.80
61896;DHT22;47835;52.778;5.956;2022-11-20T15:56:15;17.10;75.80
61896;DHT22;47835;52.778;5.956;2022-11-20T15:58:41;17.10;75.50
61896;DHT22;47835;52.778;5.956;2022-11-20T16:01:15;17.10;75.40
61896;DHT22;47835;52.778;5.956;2022-11-20T16:03:42;17.10;75.60
61896;DHT22;47835;52.778;5.956;2022-11-20T16:06:07;17.10;76.20
61896;DHT22;47835;52.778;5.956;2022-11-20T16:08:33;17.10;75.70
61896;DHT22;47835;52.778;5.956;2022-11-20T16:10:59;17.10;75.40
61896;DHT22;47835;52.778;5.956;2022-11-20T16:13:25;17.10;75.60
61896;DHT22;47835;52.778;5.956;2022-11-20T16:16:23;17.10;75.70
61896;DHT22;47835;52.778;5.956;2022-11-20T16:18:51;17.10;75.70
61896;DHT22;47835;52.778;5.956;2022-11-20T16:21:17;17.10;76.00
61896;DHT22;47835;52.778;5.956;2022-11-20T16:23:43;17.20;77.90
61896;DHT22;47835;52.778;5.956;2022-11-20T16:26:17;17.20;76.10
61896;DHT22;47835;52.778;5.956;2022-11-20T16:28:44;17.20;75.10
61896;DHT22;47835;52.778;5.956;2022-11-20T16:31:12;17.20;75.00
61896;DHT22;47835;52.778;5.956;2022-11-20T16:33:39;17.10;74.70
61896;DHT22;47835;52.778;5.956;2022-11-20T16:36:12;17.10;74.80
61896;DHT22;47835;52.778;5.956;2022-11-20T16:38:39;17.10;74.50
61896;DHT22;47835;52.778;5.956;2022-11-20T16:41:05;17.10;74.70
61896;DHT22;47835;52.778;5.956;2022-11-20T16:43:30;17.10;75.30
61896;DHT22;47835;52.778;5.956;2022-11-20T16:45:56;17.10;76.10
61896;DHT22;47835;52.778;5.956;2022-11-20T16:48:21;17.10;71.30
61896;DHT22;47835;52.778;5.956;2022-11-20T16:50:52;17.10;73.70
61896;DHT22;47835;52.778;5.956;2022-11-20T16:53:19;17.10;74.90
61896;DHT22;47835;52.778;5.956;2022-11-20T16:55:46;17.00;76.00
61896;DHT22;47835;52.778;5.956;2022-11-20T16:58:12;17.10;77.00
61896;DHT22;47835;52.778;5.956;2022-11-20T17:00:38;17.10;75.50
61896;DHT22;47835;52.778;5.956;2022-11-20T17:03:05;17.10;75.20
61896;DHT22;47835;52.778;5.956;2022-11-20T17:05:31;17.00;75.00
61896;DHT22;47835;52.778;5.956;2022-11-20T17:07:56;17.00;75.10
61896;DHT22;47835;52.778;5.956;2022-11-20T17:10:22;17.00;74.90
61896;DHT22;47835;52.778;5.956;2022-11-20T17:12:48;17.00;74.90